createdAt,value
2019-05-26T00:00:51.307Z,0.00
2019-05-26T00:01:51.301Z,0.00
2019-05-26T00:02:51.357Z,0.00
2019-05-26T00:03:51.267Z,0.00
2019-05-26T00:04:51.250Z,0.00
2019-05-26T00:05:51.246Z,0.00
2019-05-26T00:06:51.268Z,0.00
2019-05-26T00:07:51.318Z,0.00
2019-05-26T00:08:51.239Z,0.00
2019-05-26T00:09:51.197Z,0.00
2019-05-26T00:10:51.194Z,0.00
2019-05-26T00:11:51.200Z,0.00
2019-05-26T00:12:51.170Z,0.00
2019-05-26T00:13:51.170Z,0.00
2019-05-26T00:14:51.150Z,0.00
2019-05-26T00:15:51.143Z,0.00
2019-05-26T00:16:51.145Z,0.00
2019-05-26T00:17:51.153Z,0.00
2019-05-26T00:18:51.120Z,0.00
2019-05-26T00:19:51.099Z,0.00
2019-05-26T00:20:51.099Z,0.00
2019-05-26T00:21:51.093Z,0.00
2019-05-26T00:22:51.059Z,0.00
2019-05-26T00:23:51.054Z,0.00
2019-05-26T00:24:51.045Z,0.00
2019-05-26T00:25:51.040Z,0.00
2019-05-26T00:26:51.036Z,0.00
2019-05-26T00:27:51.013Z,0.00
2019-05-26T00:28:51.005Z,0.00
2019-05-26T00:29:51.001Z,0.00
2019-05-26T00:30:51.019Z,0.00
2019-05-26T00:31:50.989Z,0.00
2019-05-26T00:32:50.977Z,0.00
2019-05-26T00:33:50.942Z,0.00
2019-05-26T00:34:50.941Z,0.00
2019-05-26T00:35:50.929Z,0.00
2019-05-26T00:36:50.940Z,0.00
2019-05-26T00:37:51.029Z,0.00
2019-05-26T00:38:50.895Z,0.00
2019-05-26T00:39:50.880Z,0.00
2019-05-26T00:40:50.898Z,0.00
2019-05-26T00:41:50.873Z,0.00
2019-05-26T00:42:50.861Z,0.00
2019-05-26T00:43:50.839Z,0.00
2019-05-26T00:44:50.894Z,0.00
2019-05-26T00:45:50.816Z,0.00
2019-05-26T00:46:50.825Z,0.00
2019-05-26T00:47:50.796Z,0.00
2019-05-26T00:48:50.789Z,0.00
2019-05-26T00:49:50.798Z,0.00
2019-05-26T00:50:50.757Z,0.00
2019-05-26T00:51:50.779Z,0.00
2019-05-26T00:52:50.746Z,0.00
2019-05-26T00:53:50.737Z,0.00
2019-05-26T00:54:50.714Z,0.00
2019-05-26T00:55:50.700Z,0.00
2019-05-26T00:56:50.687Z,0.00
2019-05-26T00:57:50.707Z,0.00
2019-05-26T00:58:50.679Z,0.00
2019-05-26T00:59:50.671Z,0.00
2019-05-26T01:00:50.673Z,0.00
2019-05-26T01:01:50.644Z,0.00
2019-05-26T01:02:50.645Z,0.00
2019-05-26T01:03:50.638Z,0.00
2019-05-26T01:04:50.608Z,0.00
2019-05-26T01:05:50.621Z,0.00
2019-05-26T01:06:50.587Z,0.00
2019-05-26T01:08:05.324Z,0.00
2019-05-26T01:08:51.563Z,0.00
2019-05-26T01:09:50.571Z,0.00
2019-05-26T01:10:50.545Z,0.00
2019-05-26T01:11:50.601Z,0.00
2019-05-26T01:12:50.539Z,0.00
2019-05-26T01:13:50.514Z,0.00
2019-05-26T01:14:50.496Z,0.00
2019-05-26T01:15:50.507Z,0.00
2019-05-26T01:16:50.498Z,0.00
2019-05-26T01:17:50.506Z,0.00
2019-05-26T01:18:50.458Z,0.00
2019-05-26T01:19:50.503Z,0.00
2019-05-26T01:20:50.436Z,0.00
2019-05-26T01:21:50.447Z,0.00
2019-05-26T01:22:53.628Z,0.00
2019-05-26T01:23:50.402Z,0.00
2019-05-26T01:24:50.406Z,0.00
2019-05-26T01:25:50.393Z,0.00
2019-05-26T01:26:50.411Z,0.00
2019-05-26T01:27:50.381Z,0.00
2019-05-26T01:28:50.365Z,0.00
2019-05-26T01:29:50.343Z,0.00
2019-05-26T01:30:50.332Z,0.00
2019-05-26T01:31:50.316Z,0.00
2019-05-26T01:32:50.335Z,0.00
2019-05-26T01:33:50.304Z,0.00
2019-05-26T01:34:50.306Z,0.00
2019-05-26T01:35:50.290Z,0.00
2019-05-26T01:36:50.268Z,0.00
2019-05-26T01:37:50.276Z,0.00
2019-05-26T01:38:50.242Z,0.00
2019-05-26T01:39:50.256Z,0.00
2019-05-26T01:40:50.219Z,0.00
2019-05-26T01:41:50.211Z,0.00
2019-05-26T01:42:50.200Z,0.00
2019-05-26T01:43:50.207Z,0.00
2019-05-26T01:44:50.186Z,0.00
2019-05-26T01:45:50.167Z,0.00
2019-05-26T01:46:50.150Z,0.00
2019-05-26T01:47:50.145Z,0.00
2019-05-26T01:48:50.149Z,0.00
2019-05-26T01:49:50.155Z,0.00
2019-05-26T01:50:50.114Z,0.00
2019-05-26T01:51:50.121Z,0.00
2019-05-26T01:52:50.093Z,0.00
2019-05-26T01:53:50.099Z,0.00
2019-05-26T01:54:50.106Z,0.00
2019-05-26T01:55:50.061Z,0.00
2019-05-26T01:56:50.057Z,0.00
2019-05-26T01:57:50.041Z,0.00
2019-05-26T01:58:50.042Z,0.00
2019-05-26T01:59:50.017Z,0.00
2019-05-26T02:00:50.019Z,0.00
2019-05-26T02:01:49.990Z,0.00
2019-05-26T02:02:50.003Z,0.00
2019-05-26T02:03:49.999Z,0.00
2019-05-26T02:04:49.963Z,0.00
2019-05-26T02:05:49.961Z,0.00
2019-05-26T02:06:49.951Z,0.00
2019-05-26T02:07:49.927Z,0.00
2019-05-26T02:08:49.950Z,0.00
2019-05-26T02:09:49.912Z,0.00
2019-05-26T02:10:49.901Z,0.00
2019-05-26T02:11:49.889Z,0.00
2019-05-26T02:12:49.905Z,0.00
2019-05-26T02:13:49.890Z,0.00
2019-05-26T02:14:49.860Z,0.00
2019-05-26T02:15:49.846Z,0.00
2019-05-26T02:16:49.836Z,0.00
2019-05-26T02:17:49.847Z,0.00
2019-05-26T02:18:49.829Z,0.00
2019-05-26T02:19:49.802Z,0.00
2019-05-26T02:20:49.812Z,0.00
2019-05-26T02:21:49.799Z,0.00
2019-05-26T02:22:49.777Z,0.00
2019-05-26T02:23:49.805Z,0.00
2019-05-26T02:24:49.748Z,0.00
2019-05-26T02:25:49.740Z,0.00
2019-05-26T02:26:49.749Z,0.00
2019-05-26T02:27:49.709Z,0.00
2019-05-26T02:28:49.719Z,0.00
2019-05-26T02:29:49.721Z,0.00
2019-05-26T02:30:49.683Z,0.00
2019-05-26T02:31:49.676Z,0.00
2019-05-26T02:32:49.669Z,0.00
2019-05-26T02:33:49.664Z,0.00
2019-05-26T02:34:49.642Z,0.00
2019-05-26T02:35:49.655Z,0.00
2019-05-26T02:36:49.622Z,0.00
2019-05-26T02:37:49.619Z,0.00
2019-05-26T02:39:01.777Z,0.00
2019-05-26T02:39:50.584Z,0.00
2019-05-26T02:40:49.572Z,0.00
2019-05-26T02:41:49.573Z,0.00
2019-05-26T02:42:49.553Z,0.00
2019-05-26T02:43:49.575Z,0.00
2019-05-26T02:44:49.557Z,0.00
2019-05-26T02:45:49.514Z,0.00
2019-05-26T02:46:49.510Z,0.00
2019-05-26T02:47:49.498Z,0.00
2019-05-26T02:48:49.549Z,4.00
2019-05-26T02:49:49.507Z,4.00
2019-05-26T02:50:49.475Z,4.00
2019-05-26T02:51:49.470Z,4.00
2019-05-26T02:52:49.454Z,4.00
2019-05-26T02:53:49.454Z,0.00
2019-05-26T02:54:49.430Z,4.00
2019-05-26T02:55:49.418Z,4.00
2019-05-26T02:56:49.413Z,4.00
2019-05-26T02:57:49.391Z,8.00
2019-05-26T02:58:49.428Z,4.00
2019-05-26T02:59:49.376Z,4.00
2019-05-26T03:00:49.368Z,8.00
2019-05-26T03:02:02.577Z,8.00
2019-05-26T03:02:50.345Z,8.00
2019-05-26T03:03:49.350Z,8.00
2019-05-26T03:04:49.322Z,12.00
2019-05-26T03:05:49.317Z,12.00
2019-05-26T03:06:49.310Z,16.00
2019-05-26T03:07:49.308Z,16.00
2019-05-26T03:08:49.399Z,20.00
2019-05-26T03:09:49.277Z,20.00
2019-05-26T03:10:49.268Z,16.00
2019-05-26T03:11:49.265Z,16.00
2019-05-26T03:12:49.229Z,20.00
2019-05-26T03:13:49.271Z,20.00
2019-05-26T03:14:49.230Z,24.00
2019-05-26T03:15:49.206Z,24.00
2019-05-26T03:16:49.192Z,28.00
2019-05-26T03:17:49.191Z,32.00
2019-05-26T03:18:49.172Z,36.00
2019-05-26T03:19:49.184Z,40.00
2019-05-26T03:20:49.152Z,44.00
2019-05-26T03:21:49.180Z,52.00
2019-05-26T03:22:49.130Z,60.00
2019-05-26T03:23:53.248Z,68.00
2019-05-26T03:24:49.127Z,76.00
2019-05-26T03:25:49.102Z,88.00
2019-05-26T03:26:49.081Z,104.00
2019-05-26T03:27:49.070Z,124.00
2019-05-26T03:28:49.108Z,140.00
2019-05-26T03:29:49.071Z,152.00
2019-05-26T03:30:49.045Z,168.00
2019-05-26T03:31:49.026Z,184.00
2019-05-26T03:32:49.030Z,204.00
2019-05-26T03:33:49.021Z,232.00
2019-05-26T03:34:49.030Z,256.00
2019-05-26T03:35:48.989Z,284.00
2019-05-26T03:36:48.989Z,312.00
2019-05-26T03:37:48.964Z,340.00
2019-05-26T03:38:48.961Z,376.00
2019-05-26T03:39:48.965Z,408.00
2019-05-26T03:40:48.935Z,448.00
2019-05-26T03:41:48.931Z,488.00
2019-05-26T03:42:48.923Z,528.00
2019-05-26T03:43:48.895Z,576.00
2019-05-26T03:44:48.922Z,616.00
2019-05-26T03:45:48.880Z,656.00
2019-05-26T03:46:48.877Z,700.00
2019-05-26T03:47:48.867Z,740.00
2019-05-26T03:48:48.861Z,780.00
2019-05-26T03:49:48.844Z,816.00
2019-05-26T03:50:48.821Z,844.00
2019-05-26T03:51:48.814Z,876.00
2019-05-26T03:52:48.803Z,908.00
2019-05-26T03:53:48.799Z,952.00
2019-05-26T03:54:48.840Z,1008.00
2019-05-26T03:55:48.773Z,1072.00
2019-05-26T03:56:48.765Z,1120.00
2019-05-26T03:57:48.748Z,1164.00
2019-05-26T03:58:48.858Z,1208.00
2019-05-26T03:59:48.764Z,1252.00
2019-05-26T04:00:48.723Z,1312.00
2019-05-26T04:01:48.707Z,1380.00
2019-05-26T04:02:48.700Z,1448.00
2019-05-26T04:03:48.693Z,1536.00
2019-05-26T04:04:48.698Z,1656.00
2019-05-26T04:05:48.669Z,1788.00
2019-05-26T04:06:48.658Z,1912.00
2019-05-26T04:07:48.670Z,2032.00
2019-05-26T04:08:48.636Z,2164.00
2019-05-26T04:10:03.976Z,2332.00
2019-05-26T04:10:49.632Z,2532.00
2019-05-26T04:11:48.603Z,2732.00
2019-05-26T04:12:48.586Z,2932.00
2019-05-26T04:13:48.583Z,3128.00
2019-05-26T04:14:48.578Z,3316.00
2019-05-26T04:15:48.579Z,3516.00
2019-05-26T04:16:48.546Z,3704.00
2019-05-26T04:17:48.547Z,3880.00
2019-05-26T04:18:48.537Z,4060.00
2019-05-26T04:19:48.542Z,4244.00
2019-05-26T04:20:48.538Z,4420.00
2019-05-26T04:21:48.485Z,4604.00
2019-05-26T04:22:48.487Z,4824.00
2019-05-26T04:23:48.477Z,5076.00
2019-05-26T04:24:48.456Z,5408.00
2019-05-26T04:25:48.478Z,5740.00
2019-05-26T04:26:48.441Z,6016.00
2019-05-26T04:27:48.426Z,6244.00
2019-05-26T04:28:48.419Z,6384.00
2019-05-26T04:29:48.404Z,6368.00
2019-05-26T04:30:48.423Z,6160.00
2019-05-26T04:31:48.383Z,5996.00
2019-05-26T04:32:48.377Z,6068.00
2019-05-26T04:33:48.364Z,6152.00
2019-05-26T04:34:48.349Z,6236.00
2019-05-26T04:35:48.366Z,6364.00
2019-05-26T04:36:48.321Z,6556.00
2019-05-26T04:37:48.324Z,6768.00
2019-05-26T04:38:48.310Z,6880.00
2019-05-26T04:39:48.324Z,7184.00
2019-05-26T04:40:48.309Z,7744.00
2019-05-26T04:41:48.276Z,8280.00
2019-05-26T04:42:48.272Z,8980.00
2019-05-26T04:43:48.266Z,9828.00
2019-05-26T04:44:48.239Z,9880.00
2019-05-26T04:45:48.256Z,10132.00
2019-05-26T04:46:48.224Z,10148.00
2019-05-26T04:47:48.212Z,9920.00
2019-05-26T04:48:48.200Z,9840.00
2019-05-26T04:49:48.201Z,9608.00
2019-05-26T04:50:48.322Z,10316.00
2019-05-26T04:51:48.180Z,10624.00
2019-05-26T04:53:05.519Z,10464.00
2019-05-26T04:53:49.138Z,10352.00
2019-05-26T04:54:48.133Z,9788.00
2019-05-26T04:55:48.143Z,9368.00
2019-05-26T04:56:48.112Z,9812.00
2019-05-26T04:57:48.109Z,10048.00
2019-05-26T04:58:48.093Z,10204.00
2019-05-26T04:59:48.082Z,10444.00
2019-05-26T05:00:48.084Z,10540.00
2019-05-26T05:01:48.053Z,10740.00
2019-05-26T05:02:48.046Z,11176.00
2019-05-26T05:03:48.035Z,11680.00
2019-05-26T05:04:48.026Z,12140.00
2019-05-26T05:05:48.024Z,12728.00
2019-05-26T05:06:48.014Z,13120.00
2019-05-26T05:07:47.990Z,13436.00
2019-05-26T05:08:47.975Z,13680.00
2019-05-26T05:09:47.970Z,13804.00
2019-05-26T05:10:47.981Z,13752.00
2019-05-26T05:11:47.957Z,14228.00
2019-05-26T05:12:47.950Z,14700.00
2019-05-26T05:13:47.921Z,14972.00
2019-05-26T05:14:47.913Z,15132.00
2019-05-26T05:15:47.923Z,15168.00
2019-05-26T05:16:47.889Z,15248.00
2019-05-26T05:17:47.930Z,15224.00
2019-05-26T05:18:47.872Z,15444.00
2019-05-26T05:19:47.857Z,16132.00
2019-05-26T05:20:47.847Z,16480.00
2019-05-26T05:21:47.861Z,16416.00
2019-05-26T05:22:47.826Z,16448.00
2019-05-26T05:23:47.823Z,16512.00
2019-05-26T05:24:47.807Z,16292.00
2019-05-26T05:25:47.788Z,17120.00
2019-05-26T05:26:47.798Z,16928.00
2019-05-26T05:27:47.773Z,16340.00
2019-05-26T05:28:47.758Z,17056.00
2019-05-26T05:29:47.761Z,16896.00
2019-05-26T05:30:47.739Z,16408.00
2019-05-26T05:31:47.745Z,17856.00
2019-05-26T05:32:47.720Z,18176.00
2019-05-26T05:33:47.702Z,18368.00
2019-05-26T05:34:47.692Z,18624.00
2019-05-26T05:35:47.686Z,19136.00
2019-05-26T05:36:47.696Z,19552.00
2019-05-26T05:37:47.665Z,19680.00
2019-05-26T05:38:47.653Z,19648.00
2019-05-26T05:39:47.646Z,19840.00
2019-05-26T05:40:58.949Z,20256.00
2019-05-26T05:41:48.637Z,20800.00
2019-05-26T05:42:47.610Z,21152.00
2019-05-26T05:43:47.598Z,21472.00
2019-05-26T05:44:47.589Z,21632.00
2019-05-26T05:45:47.572Z,21760.00
2019-05-26T05:46:47.580Z,21728.00
2019-05-26T05:47:47.554Z,21632.00
2019-05-26T05:48:47.539Z,21440.00
2019-05-26T05:49:47.539Z,21792.00
2019-05-26T05:50:47.525Z,22048.00
2019-05-26T05:51:47.525Z,22208.00
2019-05-26T05:52:47.509Z,22080.00
2019-05-26T05:53:47.494Z,21376.00
2019-05-26T05:54:47.479Z,21472.00
2019-05-26T05:55:47.469Z,21568.00
2019-05-26T05:56:47.479Z,20576.00
2019-05-26T05:57:47.442Z,19264.00
2019-05-26T05:58:47.437Z,18624.00
2019-05-26T05:59:47.424Z,17664.00
2019-05-26T06:00:47.411Z,18272.00
2019-05-26T06:01:47.421Z,19456.00
2019-05-26T06:02:47.398Z,19712.00
2019-05-26T06:03:47.382Z,18432.00
2019-05-26T06:04:47.375Z,19008.00
2019-05-26T06:05:47.365Z,20288.00
2019-05-26T06:06:47.536Z,20000.00
2019-05-26T06:07:47.357Z,19648.00
2019-05-26T06:08:47.331Z,20000.00
2019-05-26T06:09:47.317Z,20416.00
2019-05-26T06:10:47.305Z,21120.00
2019-05-26T06:11:47.312Z,21120.00
2019-05-26T06:12:47.282Z,21440.00
2019-05-26T06:13:47.278Z,21760.00
2019-05-26T06:14:47.269Z,21920.00
2019-05-26T06:15:47.266Z,22240.00
2019-05-26T06:16:47.264Z,22656.00
2019-05-26T06:17:47.229Z,22720.00
2019-05-26T06:18:47.221Z,22880.00
2019-05-26T06:19:47.203Z,23616.00
2019-05-26T06:20:47.195Z,23648.00
2019-05-26T06:21:47.207Z,23936.00
2019-05-26T06:22:47.179Z,24384.00
2019-05-26T06:23:47.163Z,24640.00
2019-05-26T06:24:47.155Z,24672.00
2019-05-26T06:25:47.143Z,24928.00
2019-05-26T06:26:47.153Z,24960.00
2019-05-26T06:27:47.125Z,24864.00
2019-05-26T06:28:47.133Z,24864.00
2019-05-26T06:29:58.420Z,25312.00
2019-05-26T06:30:48.122Z,25664.00
2019-05-26T06:31:47.307Z,26752.00
2019-05-26T06:32:47.137Z,27040.00
2019-05-26T06:33:47.061Z,27904.00
2019-05-26T06:34:47.058Z,28224.00
2019-05-26T06:35:47.140Z,28096.00
2019-05-26T06:36:47.353Z,27328.00
2019-05-26T06:37:47.042Z,27680.00
2019-05-26T06:38:47.068Z,27552.00
2019-05-26T06:39:47.045Z,26560.00
2019-05-26T06:40:46.997Z,26624.00
2019-05-26T06:41:47.015Z,26592.00
2019-05-26T06:42:46.974Z,26144.00
2019-05-26T06:43:46.946Z,24800.00
2019-05-26T06:44:53.594Z,23968.00
2019-05-26T06:45:47.936Z,24000.00
2019-05-26T06:46:47.092Z,24608.00
2019-05-26T06:47:46.915Z,24704.00
2019-05-26T06:48:46.913Z,24320.00
2019-05-26T06:49:46.883Z,23904.00
2019-05-26T06:50:46.874Z,23712.00
2019-05-26T06:51:46.898Z,23808.00
2019-05-26T06:52:46.905Z,23904.00
2019-05-26T06:53:46.843Z,24064.00
2019-05-26T06:54:46.855Z,24640.00
2019-05-26T06:55:46.820Z,24928.00
2019-05-26T06:56:46.830Z,24800.00
2019-05-26T06:57:46.818Z,23968.00
2019-05-26T06:58:46.793Z,23968.00
2019-05-26T06:59:46.781Z,24096.00
2019-05-26T07:00:46.804Z,24416.00
2019-05-26T07:01:46.771Z,24704.00
2019-05-26T07:02:46.756Z,24768.00
2019-05-26T07:03:46.730Z,24256.00
2019-05-26T07:04:46.723Z,23776.00
2019-05-26T07:05:46.716Z,23584.00
2019-05-26T07:06:46.706Z,24736.00
2019-05-26T07:07:46.709Z,23680.00
2019-05-26T07:08:46.681Z,22976.00
2019-05-26T07:09:46.667Z,24320.00
2019-05-26T07:10:46.655Z,25280.00
2019-05-26T07:11:54.194Z,26080.00
2019-05-26T07:12:47.652Z,26496.00
2019-05-26T07:13:46.624Z,26592.00
2019-05-26T07:14:46.621Z,25664.00
2019-05-26T07:15:46.602Z,25568.00
2019-05-26T07:16:46.595Z,25088.00
2019-05-26T07:17:46.599Z,25440.00
2019-05-26T07:18:46.579Z,25376.00
2019-05-26T07:19:46.567Z,25504.00
2019-05-26T07:20:46.556Z,26048.00
2019-05-26T07:21:46.542Z,26112.00
2019-05-26T07:22:46.554Z,25440.00
2019-05-26T07:23:46.538Z,25344.00
2019-05-26T07:24:46.531Z,25088.00
2019-05-26T07:25:46.502Z,25536.00
2019-05-26T07:26:46.498Z,25472.00
2019-05-26T07:27:46.493Z,26944.00
2019-05-26T07:28:46.469Z,27264.00
2019-05-26T07:29:46.463Z,28864.00
2019-05-26T07:30:46.459Z,36608.00
2019-05-26T07:31:46.444Z,52640.00
2019-05-26T07:32:46.459Z,67328.00
2019-05-26T07:33:46.414Z,73632.00
2019-05-26T07:34:46.405Z,77120.00
2019-05-26T07:35:49.697Z,79168.00
2019-05-26T07:36:46.387Z,84064.00
2019-05-26T07:37:46.414Z,85952.00
2019-05-26T07:38:46.391Z,89056.00
2019-05-26T07:39:46.372Z,91936.00
2019-05-26T07:40:46.350Z,94720.00
2019-05-26T07:41:46.339Z,95808.00
2019-05-26T07:42:46.409Z,102144.00
2019-05-26T07:43:46.316Z,100512.00
2019-05-26T07:44:46.308Z,104736.00
2019-05-26T07:45:46.292Z,104192.00
2019-05-26T07:46:46.286Z,106816.00
2019-05-26T07:47:46.355Z,107552.00
2019-05-26T07:48:46.267Z,101824.00
2019-05-26T07:49:46.266Z,101088.00
2019-05-26T07:50:46.249Z,98400.00
2019-05-26T07:51:46.236Z,97280.00
2019-05-26T07:52:46.262Z,92064.00
2019-05-26T07:53:46.267Z,86208.00
2019-05-26T07:54:46.201Z,85440.00
2019-05-26T07:55:46.193Z,91136.00
2019-05-26T07:56:46.193Z,97536.00
2019-05-26T07:57:46.212Z,102144.00
2019-05-26T07:58:46.176Z,98912.00
2019-05-26T07:59:46.199Z,94752.00
2019-05-26T08:00:46.170Z,98336.00
2019-05-26T08:01:46.172Z,97728.00
2019-05-26T08:02:46.164Z,93056.00
2019-05-26T08:03:46.138Z,88064.00
2019-05-26T08:04:46.127Z,85216.00
2019-05-26T08:05:46.153Z,82560.00
2019-05-26T08:06:46.097Z,81920.00
2019-05-26T08:07:46.131Z,80768.00
2019-05-26T08:08:46.074Z,79936.00
2019-05-26T08:09:46.093Z,79744.00
2019-05-26T08:10:46.078Z,79200.00
2019-05-26T08:11:46.103Z,81856.00
2019-05-26T08:12:46.061Z,69696.00
2019-05-26T08:13:46.030Z,68160.00
2019-05-26T08:14:46.022Z,91232.00
2019-05-26T08:15:46.038Z,99040.00
2019-05-26T08:16:46.007Z,99968.00
2019-05-26T08:17:46.109Z,98208.00
2019-05-26T08:18:45.988Z,98176.00
2019-05-26T08:19:46.012Z,102208.00
2019-05-26T08:20:45.980Z,103840.00
2019-05-26T08:21:45.967Z,106048.00
2019-05-26T08:22:45.972Z,109088.00
2019-05-26T08:23:45.988Z,110944.00
2019-05-26T08:24:45.941Z,110080.00
2019-05-26T08:25:45.935Z,109600.00
2019-05-26T08:26:45.928Z,104480.00
2019-05-26T08:27:45.926Z,96192.00
2019-05-26T08:28:45.966Z,91136.00
2019-05-26T08:29:45.898Z,88480.00
2019-05-26T08:30:45.952Z,84576.00
2019-05-26T08:31:45.901Z,86496.00
2019-05-26T08:32:45.888Z,90784.00
2019-05-26T08:33:45.865Z,84320.00
2019-05-26T08:34:45.919Z,89440.00
2019-05-26T08:35:45.856Z,97248.00
2019-05-26T08:36:45.845Z,97696.00
2019-05-26T08:37:45.902Z,94240.00
2019-05-26T08:38:45.853Z,90848.00
2019-05-26T08:39:48.266Z,98080.00
2019-05-26T08:40:45.832Z,101824.00
2019-05-26T08:41:45.801Z,100800.00
2019-05-26T08:42:45.871Z,97952.00
2019-05-26T08:43:45.793Z,97728.00
2019-05-26T08:44:45.782Z,96256.00
2019-05-26T08:45:45.837Z,83744.00
2019-05-26T08:46:45.759Z,78784.00
2019-05-26T08:47:45.760Z,85792.00
2019-05-26T08:48:45.762Z,81312.00
2019-05-26T08:49:45.736Z,87264.00
2019-05-26T08:50:45.768Z,92576.00
2019-05-26T08:51:45.727Z,98176.00
2019-05-26T08:52:45.724Z,96320.00
2019-05-26T08:53:45.739Z,92096.00
2019-05-26T08:54:45.740Z,40384.00
2019-05-26T08:55:45.701Z,26848.00
2019-05-26T08:56:45.738Z,23488.00
2019-05-26T08:57:45.668Z,23584.00
2019-05-26T08:58:45.693Z,28704.00
2019-05-26T08:59:45.653Z,36480.00
2019-05-26T09:00:45.656Z,32000.00
2019-05-26T09:01:45.647Z,109088.00
2019-05-26T09:02:45.627Z,106944.00
2019-05-26T09:03:45.643Z,105984.00
2019-05-26T09:04:45.602Z,108992.00
2019-05-26T09:05:45.598Z,107104.00
2019-05-26T09:06:45.594Z,103968.00
2019-05-26T09:07:45.631Z,114592.00
2019-05-26T09:08:45.592Z,110496.00
2019-05-26T09:09:45.583Z,106496.00
2019-05-26T09:10:45.564Z,106656.00
2019-05-26T09:11:45.553Z,108288.00
2019-05-26T09:12:59.761Z,85216.00
2019-05-26T09:13:46.550Z,71968.00
2019-05-26T09:14:45.526Z,71808.00
2019-05-26T09:15:45.567Z,95296.00
2019-05-26T09:16:45.507Z,104288.00
2019-05-26T09:17:45.501Z,104832.00
2019-05-26T09:18:45.498Z,86016.00
2019-05-26T09:19:45.486Z,67232.00
2019-05-26T09:20:45.547Z,63552.00
2019-05-26T09:21:45.463Z,76384.00
2019-05-26T09:22:45.467Z,96096.00
2019-05-26T09:23:45.460Z,108192.00
2019-05-26T09:24:45.438Z,112128.00
2019-05-26T09:25:46.626Z,110656.00
2019-05-26T09:26:45.442Z,108032.00
2019-05-26T09:27:45.481Z,109184.00
2019-05-26T09:28:45.439Z,102048.00
2019-05-26T09:29:45.401Z,98400.00
2019-05-26T09:30:45.416Z,96448.00
2019-05-26T09:31:45.381Z,97088.00
2019-05-26T09:32:45.400Z,94624.00
2019-05-26T09:33:45.386Z,89248.00
2019-05-26T09:34:45.759Z,84096.00
2019-05-26T09:35:45.383Z,83776.00
2019-05-26T09:36:45.373Z,89824.00
2019-05-26T09:37:45.356Z,92832.00
2019-05-26T09:38:45.395Z,30528.00
2019-05-26T09:39:45.354Z,91200.00
2019-05-26T09:40:45.344Z,89856.00
2019-05-26T09:41:45.304Z,85664.00
2019-05-26T09:42:45.303Z,38496.00
2019-05-26T09:43:45.301Z,39456.00
2019-05-26T09:44:45.300Z,20704.00
2019-05-26T09:45:45.275Z,18048.00
2019-05-26T09:46:45.277Z,17760.00
2019-05-26T09:47:45.253Z,87584.00
2019-05-26T09:48:45.242Z,16644.00
2019-05-26T09:49:45.260Z,21440.00
2019-05-26T09:50:45.222Z,22432.00
2019-05-26T09:51:45.216Z,65600.00
2019-05-26T09:52:45.211Z,96608.00
2019-05-26T09:53:45.198Z,95680.00
2019-05-26T09:54:45.205Z,92992.00
2019-05-26T09:55:45.179Z,90048.00
2019-05-26T09:56:45.187Z,92384.00
2019-05-26T09:57:45.163Z,95680.00
2019-05-26T09:58:45.154Z,89632.00
2019-05-26T09:59:45.169Z,87648.00
2019-05-26T10:00:45.135Z,87936.00
2019-05-26T10:01:45.124Z,84032.00
2019-05-26T10:02:45.159Z,77376.00
2019-05-26T10:03:45.140Z,79168.00
2019-05-26T10:04:45.144Z,79232.00
2019-05-26T10:05:45.098Z,76000.00
2019-05-26T10:06:45.090Z,72768.00
2019-05-26T10:07:45.075Z,73696.00
2019-05-26T10:08:45.113Z,76000.00
2019-05-26T10:09:45.076Z,79744.00
2019-05-26T10:10:45.052Z,79360.00
2019-05-26T10:11:45.048Z,77696.00
2019-05-26T10:12:45.073Z,74272.00
2019-05-26T10:13:45.063Z,77408.00
2019-05-26T10:14:47.772Z,82560.00
2019-05-26T10:15:45.006Z,84448.00
2019-05-26T10:16:44.997Z,83296.00
2019-05-26T10:17:44.998Z,81600.00
2019-05-26T10:18:44.992Z,83648.00
2019-05-26T10:19:45.002Z,85344.00
2019-05-26T10:20:45.050Z,82944.00
2019-05-26T10:21:44.954Z,82272.00
2019-05-26T10:22:44.945Z,77824.00
2019-05-26T10:23:44.955Z,10848.00
2019-05-26T10:24:44.938Z,71264.00
2019-05-26T10:25:44.933Z,77664.00
2019-05-26T10:26:44.940Z,69824.00
2019-05-26T10:27:44.904Z,33408.00
2019-05-26T10:28:44.891Z,13496.00
2019-05-26T10:29:44.893Z,14540.00
2019-05-26T10:30:44.901Z,12800.00
2019-05-26T10:31:44.871Z,12316.00
2019-05-26T10:32:44.883Z,12308.00
2019-05-26T10:33:44.867Z,12468.00
2019-05-26T10:34:44.837Z,12464.00
2019-05-26T10:35:44.844Z,12084.00
2019-05-26T10:36:44.832Z,12072.00
2019-05-26T10:37:44.810Z,11216.00
2019-05-26T10:38:44.822Z,11624.00
2019-05-26T10:39:45.295Z,12276.00
2019-05-26T10:40:44.798Z,12060.00
2019-05-26T10:41:44.764Z,12172.00
2019-05-26T10:42:44.758Z,12996.00
2019-05-26T10:43:47.652Z,14016.00
2019-05-26T10:44:44.741Z,14756.00
2019-05-26T10:45:44.775Z,16684.00
2019-05-26T10:46:44.724Z,19456.00
2019-05-26T10:47:44.716Z,20160.00
2019-05-26T10:48:44.707Z,22144.00
2019-05-26T10:49:44.691Z,25664.00
2019-05-26T10:50:44.714Z,26496.00
2019-05-26T10:51:44.673Z,26688.00
2019-05-26T10:52:44.662Z,26784.00
2019-05-26T10:53:44.657Z,27392.00
2019-05-26T10:54:44.647Z,28032.00
2019-05-26T10:55:44.654Z,26880.00
2019-05-26T10:56:44.655Z,26752.00
2019-05-26T10:57:44.615Z,25568.00
2019-05-26T10:58:44.610Z,24768.00
2019-05-26T10:59:44.605Z,24896.00
2019-05-26T11:00:44.586Z,25024.00
2019-05-26T11:01:44.595Z,26048.00
2019-05-26T11:02:44.570Z,25984.00
2019-05-26T11:03:44.550Z,25536.00
2019-05-26T11:04:44.530Z,24928.00
2019-05-26T11:05:44.527Z,24704.00
2019-05-26T11:06:44.539Z,23424.00
2019-05-26T11:07:44.506Z,23488.00
2019-05-26T11:08:44.502Z,23840.00
2019-05-26T11:09:44.489Z,23040.00
2019-05-26T11:10:44.476Z,22464.00
2019-05-26T11:11:44.487Z,21632.00
2019-05-26T11:12:44.470Z,20896.00
2019-05-26T11:13:44.454Z,20800.00
2019-05-26T11:14:44.437Z,21504.00
2019-05-26T11:15:44.428Z,22304.00
2019-05-26T11:16:44.450Z,22656.00
2019-05-26T11:17:44.416Z,22560.00
2019-05-26T11:18:44.399Z,22368.00
2019-05-26T11:19:44.405Z,21536.00
2019-05-26T11:20:44.376Z,20800.00
2019-05-26T11:21:44.381Z,20160.00
2019-05-26T11:22:44.346Z,19072.00
2019-05-26T11:23:44.340Z,17696.00
2019-05-26T11:24:44.331Z,17504.00
2019-05-26T11:25:44.325Z,17504.00
2019-05-26T11:26:44.368Z,17408.00
2019-05-26T11:27:44.299Z,17216.00
2019-05-26T11:28:44.281Z,16576.00
2019-05-26T11:29:44.291Z,16080.00
2019-05-26T11:30:44.268Z,16080.00
2019-05-26T11:31:44.285Z,16544.00
2019-05-26T11:32:44.251Z,16800.00
2019-05-26T11:33:44.243Z,16800.00
2019-05-26T11:34:44.223Z,17024.00
2019-05-26T11:35:44.211Z,17408.00
2019-05-26T11:36:44.223Z,17504.00
2019-05-26T11:37:44.198Z,17280.00
2019-05-26T11:38:44.191Z,16960.00
2019-05-26T11:39:44.179Z,16800.00
2019-05-26T11:40:44.446Z,17056.00
2019-05-26T11:41:44.354Z,17536.00
2019-05-26T11:42:45.242Z,17600.00
2019-05-26T11:43:44.161Z,17280.00
2019-05-26T11:44:44.138Z,16736.00
2019-05-26T11:45:44.106Z,16152.00
2019-05-26T11:46:44.109Z,15856.00
2019-05-26T11:47:44.104Z,15776.00
2019-05-26T11:48:44.089Z,15876.00
2019-05-26T11:49:44.068Z,16316.00
2019-05-26T11:50:44.060Z,17120.00
2019-05-26T11:51:44.085Z,17728.00
2019-05-26T11:52:44.082Z,18336.00
2019-05-26T11:53:44.024Z,18720.00
2019-05-26T11:54:44.022Z,19168.00
2019-05-26T11:55:44.021Z,19520.00
2019-05-26T11:56:43.988Z,19712.00
2019-05-26T11:57:44.003Z,19840.00
2019-05-26T11:58:43.997Z,19808.00
2019-05-26T11:59:47.104Z,19840.00
2019-05-26T12:00:43.970Z,19712.00
2019-05-26T12:01:43.947Z,19648.00
2019-05-26T12:02:43.981Z,19616.00
2019-05-26T12:03:43.923Z,19712.00
2019-05-26T12:04:43.929Z,19584.00
2019-05-26T12:05:43.913Z,19456.00
2019-05-26T12:06:43.910Z,19488.00
2019-05-26T12:07:43.900Z,19648.00
2019-05-26T12:08:43.872Z,19680.00
2019-05-26T12:09:43.878Z,19488.00
2019-05-26T12:10:43.879Z,19072.00